Time;durP1;ratioP1;P1;durP2;ratioP2;P2;SDS_P1;SDS_P2;PMS_P1;PMS_P2;Temp;Humidity;BMP_temperature;BMP_pressure;BME280_temperature;BME280_humidity;BME280_pressure;Samples;Min_cycle;Max_cycle;Signal;HPM_P1;HPM_P2
2024/01/28 00:01:56;;;;;;;15.17;8.40;;;5.60;99.90;;;;;;5073019;28;20480;-56
2024/01/28 00:04:23;;;;;;;15.47;7.30;;;5.60;99.90;;;;;;5076249;28;20471;-57
2024/01/28 00:06:50;;;;;;;19.00;9.00;;;5.60;99.90;;;;;;5076767;28;20441;-56
2024/01/28 00:09:18;;;;;;;18.30;6.90;;;5.60;99.90;;;;;;5076721;28;20451;-56
2024/01/28 00:11:44;;;;;;;14.97;7.53;;;5.60;99.90;;;;;;5076879;28;20444;-57
2024/01/28 00:14:11;;;;;;;12.13;7.33;;;5.60;99.90;;;;;;5076366;28;20464;-57
2024/01/28 00:16:38;;;;;;;13.67;6.10;;;5.60;99.90;;;;;;5076873;28;20919;-57
2024/01/28 00:19:05;;;;;;;15.13;5.53;;;5.60;99.90;;;;;;5076349;28;20449;-56
2024/01/28 00:21:32;;;;;;;21.97;7.77;;;5.60;99.90;;;;;;5076529;28;20445;-56
2024/01/28 00:23:59;;;;;;;13.20;6.90;;;5.60;99.90;;;;;;5076575;28;20461;-56
2024/01/28 00:26:27;;;;;;;11.97;5.70;;;5.60;99.90;;;;;;5076417;28;20451;-57
2024/01/28 00:28:54;;;;;;;15.83;6.07;;;5.50;99.90;;;;;;5076491;28;20440;-56
2024/01/28 00:31:21;;;;;;;12.53;8.07;;;5.50;99.90;;;;;;5076370;28;20440;-56
2024/01/28 00:33:48;;;;;;;20.10;7.60;;;5.40;99.90;;;;;;5076360;28;20463;-57
2024/01/28 00:36:15;;;;;;;13.87;7.07;;;5.40;99.90;;;;;;5076308;28;20444;-56
2024/01/28 00:38:42;;;;;;;17.47;7.83;;;5.40;99.90;;;;;;5076181;28;20480;-57
2024/01/28 00:41:09;;;;;;;13.10;5.97;;;5.40;99.90;;;;;;5076307;28;20440;-56
2024/01/28 00:43:37;;;;;;;15.80;6.67;;;5.40;99.90;;;;;;5076408;28;20483;-56
2024/01/28 00:46:04;;;;;;;14.87;9.37;;;5.30;99.90;;;;;;5076094;28;20445;-56
2024/01/28 00:48:30;;;;;;;20.20;9.93;;;5.30;99.90;;;;;;5076092;28;20481;-56
2024/01/28 00:50:57;;;;;;;39.00;15.60;;;5.30;99.90;;;;;;5076299;28;20451;-57
2024/01/28 00:53:24;;;;;;;29.47;14.40;;;5.30;99.90;;;;;;5075701;28;20480;-56
2024/01/28 00:55:50;;;;;;;22.00;10.20;;;5.30;99.90;;;;;;5075767;28;20440;-56
2024/01/28 00:58:17;;;;;;;23.23;11.03;;;5.20;99.90;;;;;;5075170;28;20848;-56
2024/01/28 01:00:45;;;;;;;20.07;9.40;;;5.20;99.90;;;;;;5075448;28;20946;-56
2024/01/28 01:03:12;;;;;;;14.50;7.30;;;5.20;99.90;;;;;;5075644;28;20488;-56
2024/01/28 01:05:41;;;;;;;10.30;7.53;;;5.20;99.90;;;;;;5075491;28;20436;-56
2024/01/28 01:08:08;;;;;;;14.67;6.17;;;5.20;99.90;;;;;;5075905;28;20452;-56
2024/01/28 01:10:35;;;;;;;10.10;6.50;;;5.20;99.90;;;;;;5075945;28;20788;-57
2024/01/28 01:13:01;;;;;;;11.20;6.47;;;5.20;99.90;;;;;;5075521;28;20463;-56
2024/01/28 01:15:29;;;;;;;10.33;6.33;;;5.20;99.90;;;;;;5074448;28;20441;-57
2024/01/28 01:17:57;;;;;;;9.77;6.40;;;5.20;99.90;;;;;;5075321;28;20968;-56
2024/01/28 01:20:24;;;;;;;11.00;5.57;;;5.10;99.90;;;;;;5075376;28;20441;-56
2024/01/28 01:22:50;;;;;;;15.67;6.50;;;5.00;99.90;;;;;;5075050;28;21025;-56
2024/01/28 01:25:17;;;;;;;14.90;6.87;;;5.00;99.90;;;;;;5075405;28;20452;-57
2024/01/28 01:27:45;;;;;;;20.10;7.13;;;5.00;99.90;;;;;;5075655;28;20451;-57
2024/01/28 01:30:13;;;;;;;10.90;6.50;;;5.00;99.90;;;;;;5075340;28;20481;-56
2024/01/28 01:32:40;;;;;;;12.27;6.53;;;4.90;99.90;;;;;;5075232;28;20500;-57
2024/01/28 01:35:10;;;;;;;12.37;5.90;;;4.90;99.90;;;;;;5075246;28;20502;-57
2024/01/28 01:37:36;;;;;;;15.03;7.00;;;4.80;99.90;;;;;;5074912;28;20822;-57
2024/01/28 01:40:04;;;;;;;15.17;6.57;;;4.90;99.90;;;;;;5075138;28;20444;-57
2024/01/28 01:42:30;;;;;;;17.37;7.20;;;4.90;99.90;;;;;;5074794;28;20989;-56
2024/01/28 01:44:57;;;;;;;15.47;6.70;;;4.90;99.90;;;;;;5075501;28;20441;-57
2024/01/28 01:47:24;;;;;;;11.30;6.70;;;4.90;99.90;;;;;;5075390;28;20444;-57
2024/01/28 01:49:51;;;;;;;9.83;6.60;;;4.90;99.90;;;;;;5075274;28;20452;-57
2024/01/28 01:52:21;;;;;;;13.80;6.40;;;4.90;99.90;;;;;;5074688;28;20488;-57
2024/01/28 01:54:50;;;;;;;18.50;7.13;;;4.90;99.90;;;;;;5074726;28;20452;-57
2024/01/28 01:57:18;;;;;;;14.00;6.80;;;4.90;99.90;;;;;;5075103;28;20455;-57
2024/01/28 01:59:46;;;;;;;13.60;7.83;;;4.90;99.90;;;;;;5074753;28;20967;-57
2024/01/28 02:02:13;;;;;;;13.07;6.83;;;4.80;99.90;;;;;;5074490;28;20997;-57
2024/01/28 02:04:40;;;;;;;12.73;5.73;;;4.90;99.90;;;;;;5075044;28;20473;-57
2024/01/28 02:07:07;;;;;;;11.53;6.10;;;4.80;99.90;;;;;;5075270;28;20481;-57
2024/01/28 02:09:36;;;;;;;10.87;6.40;;;4.90;99.90;;;;;;5075578;28;20498;-56
2024/01/28 02:12:03;;;;;;;12.73;6.70;;;4.90;99.90;;;;;;5075771;28;20449;-57
2024/01/28 02:14:31;;;;;;;16.03;6.83;;;4.90;99.90;;;;;;5075002;28;20461;-57
2024/01/28 02:16:59;;;;;;;13.30;6.60;;;4.90;99.90;;;;;;5074889;28;20947;-57
2024/01/28 02:19:27;;;;;;;12.27;6.80;;;4.80;99.90;;;;;;5075169;28;20498;-56
2024/01/28 02:21:53;;;;;;;8.50;5.90;;;4.80;99.90;;;;;;5074987;28;20946;-57
2024/01/28 02:24:21;;;;;;;10.30;5.97;;;4.80;99.90;;;;;;5075495;28;20484;-57
2024/01/28 02:26:48;;;;;;;13.10;5.80;;;4.80;99.90;;;;;;5074858;28;20934;-57
2024/01/28 02:29:15;;;;;;;11.83;5.60;;;4.80;99.90;;;;;;5075812;28;20538;-57
2024/01/28 02:31:41;;;;;;;9.67;6.10;;;4.70;99.90;;;;;;5075519;28;20471;-57
2024/01/28 02:34:08;;;;;;;14.67;6.03;;;4.70;99.90;;;;;;5075768;28;20456;-57
2024/01/28 02:36:36;;;;;;;13.47;5.60;;;4.70;99.90;;;;;;5074764;28;20440;-57
2024/01/28 02:39:04;;;;;;;8.10;4.57;;;4.70;99.90;;;;;;5074322;28;20444;-57
2024/01/28 02:41:32;;;;;;;8.60;6.10;;;4.70;99.90;;;;;;5074363;28;20448;-57
2024/01/28 02:43:59;;;;;;;14.37;6.00;;;4.70;99.90;;;;;;5073946;28;20484;-57
2024/01/28 02:46:25;;;;;;;10.33;4.93;;;4.70;99.90;;;;;;5074015;28;20449;-57
2024/01/28 02:48:52;;;;;;;14.10;5.40;;;4.70;99.90;;;;;;5074029;28;20441;-57
2024/01/28 02:51:19;;;;;;;8.87;5.47;;;4.60;99.90;;;;;;5073675;28;20437;-57
2024/01/28 02:53:45;;;;;;;16.60;6.00;;;4.70;99.90;;;;;;5073375;28;20488;-57
2024/01/28 02:56:12;;;;;;;17.20;6.17;;;4.70;99.90;;;;;;5073820;28;20441;-57
2024/01/28 02:58:40;;;;;;;13.07;6.33;;;4.70;99.90;;;;;;5073603;28;20441;-56
2024/01/28 03:01:06;;;;;;;14.90;5.90;;;4.70;99.90;;;;;;5073744;28;20451;-57
2024/01/28 03:03:33;;;;;;;13.20;6.30;;;4.70;99.90;;;;;;5073156;28;21001;-56
2024/01/28 03:06:00;;;;;;;13.13;5.43;;;4.70;99.90;;;;;;5073522;28;20445;-56
2024/01/28 03:08:27;;;;;;;10.00;5.60;;;4.70;99.90;;;;;;5073238;28;20814;-57
2024/01/28 03:10:53;;;;;;;13.40;5.50;;;4.70;99.90;;;;;;5073438;28;20448;-57
2024/01/28 03:13:20;;;;;;;10.53;5.17;;;4.60;99.90;;;;;;5073280;28;20479;-57
2024/01/28 03:15:50;;;;;;;8.80;6.10;;;4.60;99.90;;;;;;5073159;28;20452;-56
2024/01/28 03:18:17;;;;;;;13.20;6.40;;;4.60;99.90;;;;;;5073617;28;20524;-57
2024/01/28 03:20:43;;;;;;;9.60;5.83;;;4.60;99.90;;;;;;5073331;28;20444;-57
2024/01/28 03:23:10;;;;;;;18.43;6.10;;;4.60;99.90;;;;;;5073152;28;20487;-57
2024/01/28 03:25:37;;;;;;;10.80;5.97;;;4.60;99.90;;;;;;5073365;28;20441;-57
2024/01/28 03:28:05;;;;;;;12.60;5.43;;;4.60;99.90;;;;;;5073278;28;20441;-57
2024/01/28 03:30:32;;;;;;;13.40;5.33;;;4.50;99.90;;;;;;5073195;28;20453;-56
2024/01/28 03:33:00;;;;;;;12.33;5.53;;;4.50;99.90;;;;;;5073061;28;20461;-57
2024/01/28 03:35:27;;;;;;;10.40;5.07;;;4.50;99.90;;;;;;5073172;28;20441;-56
2024/01/28 03:37:53;;;;;;;12.70;5.87;;;4.50;99.90;;;;;;5074183;28;20455;-56
2024/01/28 03:40:20;;;;;;;12.70;6.23;;;4.60;99.90;;;;;;5077364;28;20449;-57
2024/01/28 03:42:47;;;;;;;12.33;5.23;;;4.50;99.90;;;;;;5076820;28;20989;-57
2024/01/28 03:45:14;;;;;;;10.13;5.43;;;4.50;99.90;;;;;;5077392;28;20444;-56
2024/01/28 03:47:40;;;;;;;12.80;5.67;;;4.50;99.90;;;;;;5077323;28;20480;-57
2024/01/28 03:50:09;;;;;;;9.60;5.37;;;4.50;99.90;;;;;;5076870;28;20437;-56
2024/01/28 03:52:36;;;;;;;8.67;6.00;;;4.50;99.90;;;;;;5076580;28;20491;-57
2024/01/28 03:55:03;;;;;;;13.17;6.40;;;4.40;99.90;;;;;;5077074;28;20441;-57
2024/01/28 03:57:30;;;;;;;17.23;5.83;;;4.30;99.90;;;;;;5077044;28;20534;-57
2024/01/28 03:59:56;;;;;;;10.57;5.70;;;4.20;99.90;;;;;;5076875;28;20452;-57
2024/01/28 04:02:23;;;;;;;11.97;6.83;;;4.20;99.90;;;;;;5076657;28;20943;-57
2024/01/28 04:04:50;;;;;;;13.47;6.73;;;4.20;99.90;;;;;;5076820;28;20484;-57
2024/01/28 04:07:18;;;;;;;17.77;6.20;;;4.20;99.90;;;;;;5077114;28;20448;-56
2024/01/28 04:09:44;;;;;;;10.60;5.53;;;4.20;99.90;;;;;;5076744;28;20440;-57
2024/01/28 04:12:11;;;;;;;12.77;5.47;;;4.10;99.90;;;;;;5076711;28;20466;-57
2024/01/28 04:14:38;;;;;;;11.53;6.43;;;4.10;99.90;;;;;;5076246;28;20472;-56
2024/01/28 04:17:05;;;;;;;9.20;5.27;;;4.10;99.90;;;;;;5076692;28;20444;-57
2024/01/28 04:19:31;;;;;;;11.43;4.70;;;4.20;99.90;;;;;;5076588;28;20455;-57
2024/01/28 04:21:58;;;;;;;8.73;5.20;;;4.20;99.90;;;;;;5076579;28;20448;-56
2024/01/28 04:24:26;;;;;;;15.73;5.60;;;4.30;99.90;;;;;;5076306;28;20495;-57
2024/01/28 04:26:53;;;;;;;13.00;4.40;;;4.30;99.90;;;;;;5076386;28;20446;-56
2024/01/28 04:29:20;;;;;;;13.20;4.53;;;4.30;99.90;;;;;;5076282;28;20478;-56
2024/01/28 04:31:47;;;;;;;9.03;5.10;;;4.30;99.90;;;;;;5076247;28;20457;-56
2024/01/28 04:34:14;;;;;;;6.53;4.53;;;4.40;99.90;;;;;;5076175;28;20457;-56
2024/01/28 04:36:40;;;;;;;13.20;6.80;;;4.40;99.90;;;;;;5076258;28;20444;-56
2024/01/28 04:39:07;;;;;;;14.10;4.77;;;4.40;99.90;;;;;;5076139;28;20449;-56
2024/01/28 04:41:35;;;;;;;13.47;5.23;;;4.40;99.90;;;;;;5076132;28;20497;-56
2024/01/28 04:44:02;;;;;;;11.90;6.03;;;4.40;99.90;;;;;;5075941;28;20488;-56
2024/01/28 04:46:29;;;;;;;14.43;5.27;;;4.40;99.90;;;;;;5076039;28;20441;-56
2024/01/28 04:48:55;;;;;;;10.40;4.73;;;4.40;99.90;;;;;;5075835;28;20548;-56
2024/01/28 04:51:22;;;;;;;8.33;4.07;;;4.50;99.90;;;;;;5075509;28;20962;-56
2024/01/28 04:53:49;;;;;;;14.90;4.70;;;4.50;99.90;;;;;;5075632;28;20469;-56
2024/01/28 04:56:15;;;;;;;8.63;4.40;;;4.60;99.90;;;;;;5076017;28;20448;-56
2024/01/28 04:58:43;;;;;;;10.07;4.63;;;4.60;99.90;;;;;;5075878;28;20455;-56
2024/01/28 05:01:12;;;;;;;10.47;4.27;;;4.60;99.90;;;;;;5075429;28;20960;-56
2024/01/28 05:03:39;;;;;;;4.70;4.03;;;4.60;99.90;;;;;;5075670;28;20555;-56
2024/01/28 05:06:06;;;;;;;11.33;4.70;;;4.60;99.90;;;;;;5075702;28;20440;-56
2024/01/28 05:08:32;;;;;;;9.83;4.50;;;4.60;99.90;;;;;;5075640;28;20524;-56
2024/01/28 05:10:59;;;;;;;5.30;4.27;;;4.60;99.90;;;;;;5075508;28;20444;-56
2024/01/28 05:13:26;;;;;;;6.23;4.30;;;4.50;99.90;;;;;;5075491;28;20494;-56
2024/01/28 05:15:54;;;;;;;7.97;4.10;;;4.50;99.90;;;;;;5075503;28;20455;-56
2024/01/28 05:18:21;;;;;;;6.73;3.30;;;4.50;99.90;;;;;;5075737;28;20826;-56
2024/01/28 05:20:47;;;;;;;4.93;4.10;;;4.50;99.90;;;;;;5075486;28;20447;-56
2024/01/28 05:23:14;;;;;;;8.70;4.53;;;4.50;99.90;;;;;;5075278;28;20833;-56
2024/01/28 05:25:41;;;;;;;13.10;4.47;;;4.50;99.90;;;;;;5075330;28;20449;-56
2024/01/28 05:28:08;;;;;;;7.67;4.10;;;4.50;99.90;;;;;;5075268;28;20448;-56
2024/01/28 05:30:35;;;;;;;7.47;4.43;;;4.40;99.90;;;;;;5075138;28;20456;-57
2024/01/28 05:33:04;;;;;;;13.00;4.20;;;4.40;99.90;;;;;;5074975;28;20985;-56
2024/01/28 05:35:32;;;;;;;13.60;4.17;;;4.40;99.90;;;;;;5075580;28;20445;-57
2024/01/28 05:37:58;;;;;;;13.90;4.60;;;4.30;99.90;;;;;;5075256;28;20824;-56
2024/01/28 05:40:25;;;;;;;9.47;4.63;;;4.30;99.90;;;;;;5075419;28;20433;-56
2024/01/28 05:42:52;;;;;;;6.57;3.93;;;4.30;99.90;;;;;;5075021;28;20460;-57
2024/01/28 05:45:19;;;;;;;12.07;3.63;;;4.20;99.90;;;;;;5074910;28;20484;-56
2024/01/28 05:47:45;;;;;;;14.07;5.43;;;4.20;99.90;;;;;;5075040;28;20456;-56
2024/01/28 05:50:13;;;;;;;19.07;4.40;;;4.20;99.90;;;;;;5074639;28;20441;-56
2024/01/28 05:52:41;;;;;;;10.80;4.30;;;4.20;99.90;;;;;;5074493;28;20473;-56
2024/01/28 05:55:08;;;;;;;11.87;4.20;;;4.20;99.90;;;;;;5074441;28;20939;-56
2024/01/28 05:57:34;;;;;;;10.30;4.50;;;4.20;99.90;;;;;;5074629;28;20877;-56
2024/01/28 06:00:01;;;;;;;12.33;4.27;;;4.20;99.90;;;;;;5074523;28;20884;-56
2024/01/28 06:02:28;;;;;;;7.57;4.70;;;4.20;99.90;;;;;;5075046;28;20445;-56
2024/01/28 06:04:55;;;;;;;17.10;5.10;;;4.20;99.90;;;;;;5074623;28;20481;-56
2024/01/28 06:07:23;;;;;;;10.60;4.43;;;4.20;99.90;;;;;;5074556;28;20460;-56
2024/01/28 06:09:49;;;;;;;9.17;4.57;;;4.20;99.90;;;;;;5074464;28;20806;-56
2024/01/28 06:12:18;;;;;;;7.80;4.50;;;4.30;99.90;;;;;;5074317;28;20441;-56
2024/01/28 06:14:45;;;;;;;10.37;5.20;;;4.30;99.90;;;;;;5073966;28;20939;-56
2024/01/28 06:17:11;;;;;;;10.53;4.63;;;4.30;99.90;;;;;;5074081;28;20934;-56
2024/01/28 06:19:38;;;;;;;12.80;4.53;;;4.30;99.90;;;;;;5075135;28;20440;-56
2024/01/28 06:22:05;;;;;;;7.20;4.23;;;4.30;99.90;;;;;;5073997;28;20453;-56
2024/01/28 06:24:35;;;;;;;6.33;3.93;;;4.30;99.90;;;;;;5074048;28;20495;-57
2024/01/28 06:27:02;;;;;;;8.47;5.00;;;4.20;99.90;;;;;;5074407;28;20482;-56
2024/01/28 06:29:28;;;;;;;8.23;4.50;;;4.20;99.90;;;;;;5074181;28;20790;-56
2024/01/28 06:31:55;;;;;;;13.10;4.97;;;4.20;99.90;;;;;;5074002;28;20519;-57
2024/01/28 06:34:22;;;;;;;6.33;4.10;;;4.20;99.90;;;;;;5073728;28;20530;-56
2024/01/28 06:36:50;;;;;;;13.20;4.83;;;4.20;99.90;;;;;;5074110;28;20469;-57
2024/01/28 06:39:16;;;;;;;12.83;5.47;;;4.10;99.90;;;;;;5073657;28;21014;-56
2024/01/28 06:41:45;;;;;;;11.40;4.73;;;4.10;99.90;;;;;;5073925;28;20455;-56
2024/01/28 06:44:12;;;;;;;9.47;3.80;;;4.10;99.90;;;;;;5074012;28;20491;-56
2024/01/28 06:46:39;;;;;;;14.13;4.43;;;4.10;99.90;;;;;;5073809;28;20528;-56
2024/01/28 06:49:06;;;;;;;10.53;4.10;;;4.10;99.90;;;;;;5073541;28;20459;-56
2024/01/28 06:51:32;;;;;;;10.57;5.87;;;4.10;99.90;;;;;;5073640;28;20445;-56
2024/01/28 06:53:59;;;;;;;7.43;4.83;;;4.10;99.90;;;;;;5073855;28;20460;-56
2024/01/28 06:56:26;;;;;;;8.57;5.10;;;4.10;99.90;;;;;;5073700;28;20441;-56
2024/01/28 06:58:54;;;;;;;10.20;4.40;;;4.10;99.90;;;;;;5073739;28;20441;-56
2024/01/28 07:01:20;;;;;;;8.00;4.53;;;4.10;99.90;;;;;;5073646;28;20441;-56
2024/01/28 07:03:47;;;;;;;6.50;4.83;;;4.10;99.90;;;;;;5073446;28;20456;-56
2024/01/28 07:06:15;;;;;;;9.30;4.97;;;4.10;99.90;;;;;;5073589;28;20452;-56
2024/01/28 07:08:41;;;;;;;9.27;4.07;;;4.10;99.90;;;;;;5073528;28;20846;-56
2024/01/28 07:11:08;;;;;;;6.73;4.33;;;4.10;99.90;;;;;;5073573;28;20497;-56
2024/01/28 07:13:35;;;;;;;6.83;4.67;;;4.10;99.90;;;;;;5072964;28;20468;-56
2024/01/28 07:16:03;;;;;;;9.70;4.90;;;4.10;99.90;;;;;;5073403;28;20453;-56
2024/01/28 07:18:30;;;;;;;9.10;4.63;;;4.00;99.90;;;;;;5073428;28;20473;-56
2024/01/28 07:20:57;;;;;;;5.47;3.67;;;4.00;99.90;;;;;;5073628;28;20437;-56
2024/01/28 07:23:23;;;;;;;7.20;4.30;;;4.00;99.90;;;;;;5073524;28;20473;-56
2024/01/28 07:25:50;;;;;;;7.43;3.97;;;4.00;99.90;;;;;;5073311;28;20481;-56
2024/01/28 07:28:16;;;;;;;10.87;4.63;;;4.10;99.90;;;;;;5073147;28;20436;-56
2024/01/28 07:30:44;;;;;;;12.47;4.80;;;4.00;99.90;;;;;;5072929;28;20814;-56
2024/01/28 07:33:13;;;;;;;9.97;4.37;;;4.00;99.90;;;;;;5072832;28;21035;-56
2024/01/28 07:35:39;;;;;;;10.13;3.93;;;4.00;99.90;;;;;;5072896;28;20973;-56
2024/01/28 07:38:06;;;;;;;6.53;4.13;;;4.00;99.90;;;;;;5073236;28;20548;-56
2024/01/28 07:40:33;;;;;;;6.77;4.73;;;4.10;99.90;;;;;;5072898;28;20935;-56
2024/01/28 07:42:59;;;;;;;10.97;4.73;;;4.10;99.90;;;;;;5073236;28;20461;-56
2024/01/28 07:45:26;;;;;;;7.17;4.23;;;4.10;99.90;;;;;;5073239;28;20476;-56
2024/01/28 07:47:53;;;;;;;9.23;4.13;;;4.10;99.90;;;;;;5073326;28;20436;-56
2024/01/28 07:50:21;;;;;;;8.70;4.33;;;4.20;99.90;;;;;;5073185;28;20449;-57
2024/01/28 07:52:48;;;;;;;9.23;4.87;;;4.20;99.90;;;;;;5073008;28;20495;-56
2024/01/28 07:55:15;;;;;;;10.00;5.30;;;4.20;99.90;;;;;;5073183;28;20451;-56
2024/01/28 07:57:42;;;;;;;5.90;3.80;;;4.10;99.90;;;;;;5073079;28;20472;-56
2024/01/28 08:00:10;;;;;;;12.07;4.50;;;4.10;99.90;;;;;;5073053;28;20468;-56
2024/01/28 08:02:37;;;;;;;9.73;4.53;;;4.20;99.90;;;;;;5072873;28;20490;-56
2024/01/28 08:05:04;;;;;;;9.57;4.27;;;4.30;99.90;;;;;;5073044;28;20480;-57
2024/01/28 08:07:32;;;;;;;9.90;4.83;;;4.30;99.90;;;;;;5073038;28;20448;-56
2024/01/28 08:09:59;;;;;;;9.63;4.90;;;4.40;99.90;;;;;;5072985;28;20451;-56
2024/01/28 08:12:26;;;;;;;9.53;4.87;;;4.40;99.90;;;;;;5072763;28;20467;-57
2024/01/28 08:14:52;;;;;;;10.73;4.53;;;4.40;99.90;;;;;;5072822;28;20448;-56
2024/01/28 08:17:19;;;;;;;9.93;4.80;;;4.40;99.90;;;;;;5073127;28;20441;-56
2024/01/28 08:19:46;;;;;;;9.80;4.13;;;4.40;99.90;;;;;;5073602;28;20927;-56
2024/01/28 08:22:12;;;;;;;7.40;4.93;;;4.40;99.90;;;;;;5073223;28;20459;-56
2024/01/28 08:24:40;;;;;;;9.30;4.10;;;4.40;99.90;;;;;;5074745;28;20496;-56
2024/01/28 08:27:07;;;;;;;10.30;4.50;;;4.40;99.90;;;;;;5076407;28;20448;-56
2024/01/28 08:29:34;;;;;;;8.03;4.57;;;4.40;99.90;;;;;;5076407;28;20436;-56
2024/01/28 08:32:01;;;;;;;13.17;4.87;;;4.40;99.90;;;;;;5076493;28;20444;-56
2024/01/28 08:34:27;;;;;;;7.10;4.50;;;4.40;99.90;;;;;;5075957;28;20989;-56
2024/01/28 08:36:54;;;;;;;6.90;4.70;;;4.50;99.90;;;;;;5076228;28;20448;-56
2024/01/28 08:39:21;;;;;;;8.37;4.80;;;4.40;99.90;;;;;;5076276;28;20455;-56
2024/01/28 08:41:49;;;;;;;10.03;4.53;;;4.40;99.90;;;;;;5075923;28;20454;-56
2024/01/28 08:44:18;;;;;;;11.80;5.47;;;4.50;99.90;;;;;;5075851;28;20806;-56
2024/01/28 08:46:46;;;;;;;14.40;5.20;;;4.50;99.90;;;;;;5076419;28;20445;-57
2024/01/28 08:49:12;;;;;;;9.40;5.50;;;4.50;99.90;;;;;;5076255;28;20513;-56
2024/01/28 08:51:40;;;;;;;10.53;5.30;;;4.50;99.90;;;;;;5076292;28;20451;-57
2024/01/28 08:54:07;;;;;;;9.60;4.50;;;4.50;99.90;;;;;;5076030;28;20468;-56
2024/01/28 08:56:33;;;;;;;12.70;4.80;;;4.50;99.90;;;;;;5076150;28;20448;-56
2024/01/28 08:59:01;;;;;;;10.10;4.80;;;4.50;99.90;;;;;;5076059;28;20444;-56
2024/01/28 09:01:28;;;;;;;9.93;4.77;;;4.60;99.90;;;;;;5076371;28;20444;-56
2024/01/28 09:03:55;;;;;;;11.97;4.60;;;4.60;99.90;;;;;;5075628;28;20465;-56
2024/01/28 09:06:21;;;;;;;13.30;4.60;;;4.70;99.90;;;;;;5075427;28;20990;-56
2024/01/28 09:08:48;;;;;;;7.37;4.50;;;4.70;99.90;;;;;;5075878;28;20436;-56
2024/01/28 09:11:15;;;;;;;7.37;3.97;;;4.70;99.90;;;;;;5075710;28;20448;-56
2024/01/28 09:13:42;;;;;;;7.80;4.13;;;4.80;99.90;;;;;;5075493;28;20468;-56
2024/01/28 09:16:10;;;;;;;8.30;3.80;;;4.80;99.90;;;;;;5075742;28;20437;-56
2024/01/28 09:18:38;;;;;;;11.23;4.57;;;4.80;99.90;;;;;;5075578;28;20445;-56
2024/01/28 09:21:05;;;;;;;6.00;3.90;;;4.80;99.90;;;;;;5076108;28;20484;-57
2024/01/28 09:23:32;;;;;;;9.40;4.83;;;4.90;99.90;;;;;;5075354;28;20476;-56
2024/01/28 09:25:59;;;;;;;6.63;4.07;;;4.90;99.90;;;;;;5075524;28;20484;-56
2024/01/28 09:28:26;;;;;;;9.33;4.27;;;5.00;99.90;;;;;;5075469;28;20946;-56
2024/01/28 09:30:53;;;;;;;12.13;4.20;;;5.10;99.90;;;;;;5075597;28;20467;-56
2024/01/28 09:33:21;;;;;;;7.63;4.63;;;5.10;99.90;;;;;;5075323;28;20464;-56
2024/01/28 09:35:52;;;;;;;6.17;4.90;;;5.10;99.90;;;;;;5074320;28;20437;-58
2024/01/28 09:38:18;;;;;;;12.30;5.00;;;5.20;99.90;;;;;;5075325;28;20429;-56
2024/01/28 09:40:45;;;;;;;9.77;4.80;;;5.30;99.90;;;;;;5075262;28;20440;-57
2024/01/28 09:43:22;;;;;;;8.20;4.53;;;5.40;99.90;;;;;;5075034;28;20970;-57
2024/01/28 09:45:50;;;;;;;8.60;3.90;;;5.40;99.90;;;;;;5075413;28;20475;-57
2024/01/28 09:48:17;;;;;;;6.87;4.37;;;5.40;99.90;;;;;;5075520;28;20463;-57
2024/01/28 09:50:45;;;;;;;11.73;5.00;;;5.50;99.90;;;;;;5075223;28;20460;-57
2024/01/28 09:53:13;;;;;;;7.60;3.83;;;5.60;99.70;;;;;;5075058;28;20480;-58
2024/01/28 09:55:39;;;;;;;9.33;5.10;;;5.60;99.50;;;;;;5075138;28;20444;-59
2024/01/28 09:58:06;;;;;;;8.03;4.13;;;5.70;99.40;;;;;;5075463;28;20432;-59
2024/01/28 10:00:33;;;;;;;6.40;3.40;;;5.80;98.90;;;;;;5075555;28;20444;-58
2024/01/28 10:03:00;;;;;;;6.93;4.73;;;5.90;98.90;;;;;;5075052;28;20975;-57
2024/01/28 10:05:26;;;;;;;6.13;3.90;;;6.00;98.80;;;;;;5075044;28;20480;-57
2024/01/28 10:08:01;;;;;;;5.63;4.53;;;6.00;98.60;;;;;;5075010;28;20441;-57
2024/01/28 10:10:29;;;;;;;5.80;4.50;;;6.20;98.60;;;;;;5074827;28;20474;-57
2024/01/28 10:12:57;;;;;;;11.03;5.00;;;6.20;98.10;;;;;;5074594;28;20472;-57
2024/01/28 10:15:27;;;;;;;6.70;4.40;;;6.30;98.10;;;;;;5074612;28;20502;-57
2024/01/28 10:17:53;;;;;;;8.57;4.97;;;6.40;98.20;;;;;;5074634;28;20471;-57
2024/01/28 10:20:22;;;;;;;11.17;5.00;;;6.50;98.00;;;;;;5074995;28;20494;-56
2024/01/28 10:22:49;;;;;;;7.47;4.60;;;6.50;97.80;;;;;;5074795;28;20518;-57
2024/01/28 10:25:18;;;;;;;10.20;4.57;;;6.60;97.70;;;;;;5075160;28;20481;-56
2024/01/28 10:27:46;;;;;;;7.60;4.17;;;6.70;97.60;;;;;;5074719;28;20939;-57
2024/01/28 10:30:15;;;;;;;13.80;4.10;;;6.80;97.30;;;;;;5074918;28;20447;-57
2024/01/28 10:32:43;;;;;;;6.97;4.77;;;6.90;97.10;;;;;;5074170;28;20461;-57
2024/01/28 10:35:10;;;;;;;10.43;5.30;;;7.00;96.80;;;;;;5074564;28;20448;-57
2024/01/28 10:37:37;;;;;;;6.47;4.40;;;7.10;96.70;;;;;;5074207;28;20445;-57
2024/01/28 10:40:07;;;;;;;9.07;3.70;;;7.20;96.40;;;;;;5074141;28;20452;-56
2024/01/28 10:42:38;;;;;;;6.33;4.37;;;7.40;95.70;;;;;;5073652;28;20829;-56
2024/01/28 10:45:07;;;;;;;7.37;4.33;;;7.40;95.30;;;;;;5073637;28;20708;-56
2024/01/28 10:47:36;;;;;;;6.03;4.30;;;7.50;95.40;;;;;;5073629;28;20441;-56
2024/01/28 10:50:07;;;;;;;9.97;4.40;;;7.60;95.30;;;;;;5073711;28;20521;-56
2024/01/28 10:52:34;;;;;;;10.43;5.10;;;7.70;94.90;;;;;;5073266;28;20902;-56
2024/01/28 10:55:01;;;;;;;9.30;5.73;;;7.80;94.70;;;;;;5073527;28;20448;-56
2024/01/28 10:57:28;;;;;;;6.80;4.20;;;8.00;94.50;;;;;;5073747;28;20472;-56
2024/01/28 10:59:58;;;;;;;6.80;4.10;;;8.10;94.00;;;;;;5073585;28;20444;-56
2024/01/28 11:02:26;;;;;;;6.23;3.87;;;8.20;94.10;;;;;;5073633;28;20433;-56
2024/01/28 11:04:54;;;;;;;7.13;4.33;;;8.30;93.90;;;;;;5073161;28;20445;-56
2024/01/28 11:07:21;;;;;;;10.80;4.80;;;8.50;93.80;;;;;;5073380;28;20456;-56
2024/01/28 11:09:49;;;;;;;10.67;5.00;;;8.70;93.40;;;;;;5073497;28;20455;-56
2024/01/28 11:12:16;;;;;;;5.93;4.40;;;9.00;93.10;;;;;;5073074;28;20935;-56
2024/01/28 11:14:43;;;;;;;7.40;5.70;;;9.30;92.30;;;;;;5073208;28;20464;-56
2024/01/28 11:17:12;;;;;;;6.43;3.67;;;9.70;91.50;;;;;;5073402;28;20441;-56
2024/01/28 11:19:39;;;;;;;8.73;4.23;;;10.30;90.00;;;;;;5073349;28;20444;-56
2024/01/28 11:22:14;;;;;;;5.30;4.33;;;10.90;85.90;;;;;;5073339;28;20440;-56
2024/01/28 11:24:53;;;;;;;9.43;3.80;;;11.60;82.90;;;;;;5073720;28;20471;-56
2024/01/28 11:27:20;;;;;;;5.73;3.80;;;12.20;78.00;;;;;;5073282;28;20443;-56
2024/01/28 11:29:47;;;;;;;5.03;3.83;;;12.60;73.80;;;;;;5073245;28;20455;-56
2024/01/28 11:32:15;;;;;;;7.70;3.90;;;13.10;71.50;;;;;;5073146;28;20460;-56
2024/01/28 11:34:44;;;;;;;9.33;4.07;;;13.50;68.30;;;;;;5073225;28;20468;-56
2024/01/28 11:37:15;;;;;;;6.10;3.77;;;13.80;65.90;;;;;;5072887;28;20810;-56
2024/01/28 11:39:45;;;;;;;4.53;3.77;;;14.10;62.10;;;;;;5073156;28;20468;-56
2024/01/28 11:42:13;;;;;;;8.50;4.23;;;14.40;60.70;;;;;;5073253;28;20440;-56
2024/01/28 11:44:41;;;;;;;8.00;3.90;;;14.70;59.40;;;;;;5073075;28;20460;-57
2024/01/28 11:47:10;;;;;;;8.07;4.00;;;15.00;58.30;;;;;;5072826;28;20476;-56
2024/01/28 11:49:38;;;;;;;7.20;4.33;;;15.30;57.20;;;;;;5073139;28;20471;-56
2024/01/28 11:52:07;;;;;;;5.10;3.60;;;15.60;55.60;;;;;;5072886;28;20456;-56
2024/01/28 11:54:33;;;;;;;7.83;4.10;;;15.90;54.70;;;;;;5072956;28;20495;-56
2024/01/28 11:57:01;;;;;;;4.73;3.40;;;16.20;52.80;;;;;;5073378;28;20467;-57
2024/01/28 11:59:27;;;;;;;7.50;3.40;;;16.40;52.50;;;;;;5075526;28;20448;-57
2024/01/28 12:01:54;;;;;;;4.97;3.97;;;16.70;51.90;;;;;;5077002;28;20444;-57
2024/01/28 12:04:21;;;;;;;5.63;3.80;;;17.00;50.40;;;;;;5077103;28;20464;-57
2024/01/28 12:06:49;;;;;;;7.33;4.00;;;17.20;49.40;;;;;;5076414;28;20994;-56
2024/01/28 12:09:15;;;;;;;6.50;3.73;;;17.40;48.60;;;;;;5062191;28;20449;-57
2024/01/28 12:11:43;;;;;;;6.07;3.37;;;17.70;48.50;;;;;;5064076;28;20451;-57
2024/01/28 12:14:10;;;;;;;6.40;3.77;;;18.00;48.20;;;;;;5074625;28;20458;-57
2024/01/28 12:16:37;;;;;;;4.90;3.13;;;18.40;47.30;;;;;;5063041;28;20441;-57
2024/01/28 12:19:04;;;;;;;5.70;3.00;;;18.70;46.20;;;;;;5056829;28;20441;-57
2024/01/28 12:21:31;;;;;;;5.90;3.83;;;19.00;45.10;;;;;;5056243;28;20865;-57
2024/01/28 12:24:02;;;;;;;6.47;3.80;;;19.30;43.60;;;;;;5056486;28;20832;-57
2024/01/28 12:26:29;;;;;;;6.47;4.03;;;19.40;43.10;;;;;;5056690;28;20480;-57
2024/01/28 12:28:57;;;;;;;6.83;2.67;;;19.50;42.10;;;;;;5056484;28;20473;-57
2024/01/28 12:31:23;;;;;;;5.60;3.83;;;19.70;42.20;;;;;;5061247;28;20441;-57
2024/01/28 12:33:51;;;;;;;4.90;3.20;;;19.70;40.90;;;;;;5076252;28;20543;-57
2024/01/28 12:36:18;;;;;;;6.93;3.60;;;19.80;41.10;;;;;;5076274;28;20444;-56
2024/01/28 12:38:44;;;;;;;3.80;2.93;;;20.00;40.40;;;;;;5076212;28;20452;-57
2024/01/28 12:41:13;;;;;;;3.90;2.87;;;20.10;40.40;;;;;;5075979;28;20451;-56
2024/01/28 12:43:40;;;;;;;5.57;3.50;;;20.30;40.20;;;;;;5076149;28;20526;-56
2024/01/28 12:46:07;;;;;;;6.13;3.00;;;20.40;39.00;;;;;;5076061;28;20508;-56
2024/01/28 12:48:34;;;;;;;3.90;3.07;;;20.30;38.30;;;;;;5076158;28;20456;-57
2024/01/28 12:51:01;;;;;;;8.30;4.40;;;20.20;39.20;;;;;;5076085;28;20453;-57